Time;durP1;ratioP1;P1;durP2;ratioP2;P2;SDS_P1;SDS_P2;PMS_P1;PMS_P2;Temp;Humidity;BMP_temperature;BMP_pressure;BME280_temperature;BME280_humidity;BME280_pressure;Samples;Min_cycle;Max_cycle;Signal;HPM_P1;HPM_P2
2022/12/16 00:01:11;;;;;;;92.97;43.23;;;;;;;;;;4989551;28;20277;-61
2022/12/16 00:03:38;;;;;;;87.10;45.87;;;;;;;;;;4988673;28;20707;-62
2022/12/16 00:06:04;;;;;;;91.50;44.57;;;;;;;;;;4989621;28;20902;-61
2022/12/16 00:08:35;;;;;;;101.07;46.53;;;;;;;;;;5000889;28;20724;-62
2022/12/16 00:11:01;;;;;;;85.50;45.90;;;;;;;;;;5008017;28;20293;-62
2022/12/16 00:13:28;;;;;;;94.37;49.17;;;;;;;;;;5009418;28;20296;-62
2022/12/16 00:15:54;;;;;;;92.90;49.03;;;;;;;;;;4998705;28;20360;-62
2022/12/16 00:18:20;;;;;;;105.47;52.10;;;;;;;;;;4989547;28;20854;-62
2022/12/16 00:20:48;;;;;;;96.27;50.80;;;;;;;;;;4989035;28;20372;-62
2022/12/16 00:23:14;;;;;;;103.27;54.00;;;;;;;;;;5002346;28;20301;-62
2022/12/16 00:25:44;;;;;;;103.67;51.53;;;;;;;;;;5008755;28;20730;-62
2022/12/16 00:28:10;;;;;;;116.50;54.00;;;;;;;;;;5009050;28;20280;-62
2022/12/16 00:30:36;;;;;;;103.80;50.77;;;;;;;;;;5007938;28;20371;-62
2022/12/16 00:33:02;;;;;;;101.37;53.10;;;;;;;;;;5008715;28;20347;-62
2022/12/16 00:35:29;;;;;;;95.87;51.80;;;;;;;;;;5008784;28;20296;-62
2022/12/16 00:37:55;;;;;;;109.43;54.07;;;;;;;;;;5004640;28;20285;-62
2022/12/16 00:40:21;;;;;;;95.90;50.63;;;;;;;;;;5009005;28;20814;-62
2022/12/16 00:42:47;;;;;;;104.50;52.73;;;;;;;;;;5008810;28;20285;-62
2022/12/16 00:45:13;;;;;;;100.80;50.47;;;;;;;;;;5008556;28;20432;-62
2022/12/16 00:47:39;;;;;;;101.53;50.67;;;;;;;;;;5007876;28;20304;-62
2022/12/16 00:50:06;;;;;;;95.77;49.93;;;;;;;;;;5008475;28;20292;-62
2022/12/16 00:52:32;;;;;;;105.97;51.13;;;;;;;;;;4988788;28;20798;-62
2022/12/16 00:54:58;;;;;;;97.90;49.90;;;;;;;;;;4988923;28;20277;-62
2022/12/16 00:57:24;;;;;;;96.40;49.10;;;;;;;;;;4989276;28;20293;-62
2022/12/16 00:59:50;;;;;;;120.77;54.70;;;;;;;;;;4988731;28;20281;-62
2022/12/16 01:02:17;;;;;;;101.73;50.87;;;;;;;;;;4989033;28;20846;-62
2022/12/16 01:04:43;;;;;;;116.00;52.43;;;;;;;;;;4989369;28;20285;-62
2022/12/16 01:07:09;;;;;;;90.33;50.07;;;;;;;;;;4990811;28;20352;-62
2022/12/16 01:09:35;;;;;;;95.90;49.80;;;;;;;;;;4992759;28;20038;-62
2022/12/16 01:12:01;;;;;;;98.97;50.23;;;;;;;;;;4991156;28;20293;-62
2022/12/16 01:14:27;;;;;;;110.13;52.40;;;;;;;;;;4992725;28;20863;-62
2022/12/16 01:16:53;;;;;;;98.57;50.33;;;;;;;;;;4992792;28;20379;-62
2022/12/16 01:19:19;;;;;;;98.90;50.57;;;;;;;;;;4993891;28;20054;-62
2022/12/16 01:21:45;;;;;;;91.47;48.63;;;;;;;;;;4995577;28;21107;-62
2022/12/16 01:24:11;;;;;;;100.87;49.47;;;;;;;;;;4992321;28;20308;-62
2022/12/16 01:26:38;;;;;;;89.83;48.70;;;;;;;;;;4992272;28;20310;-62
2022/12/16 01:29:04;;;;;;;96.90;48.50;;;;;;;;;;5000862;28;20304;-62
2022/12/16 01:31:30;;;;;;;87.30;47.03;;;;;;;;;;5001343;28;20305;-62
2022/12/16 01:33:56;;;;;;;90.57;45.10;;;;;;;;;;4992348;28;20286;-62
2022/12/16 01:36:23;;;;;;;87.27;47.53;;;;;;;;;;4992217;28;20293;-62
2022/12/16 01:38:49;;;;;;;90.27;48.97;;;;;;;;;;4992281;28;20286;-62
2022/12/16 01:41:16;;;;;;;93.93;48.70;;;;;;;;;;4992233;28;20744;-62
2022/12/16 01:43:42;;;;;;;83.57;46.13;;;;;;;;;;4991863;28;20360;-62
2022/12/16 01:46:29;;;;;;;90.40;48.00;;;;;;;;;;4991520;28;20807;-62
2022/12/16 01:49:08;;;;;;;88.07;44.67;;;;;;;;;;4991522;28;20339;-62
2022/12/16 01:51:36;;;;;;;90.27;47.67;;;;;;;;;;4995806;28;20305;-62
2022/12/16 01:54:05;;;;;;;110.03;50.53;;;;;;;;;;5011253;28;20289;-62
2022/12/16 01:56:32;;;;;;;86.90;46.23;;;;;;;;;;4993359;28;20297;-62
2022/12/16 01:58:59;;;;;;;95.30;47.43;;;;;;;;;;4991758;28;20324;-61
2022/12/16 02:01:25;;;;;;;88.47;45.03;;;;;;;;;;4991540;28;20324;-62
2022/12/16 02:03:52;;;;;;;93.73;44.87;;;;;;;;;;4991594;28;20641;-61
2022/12/16 02:06:18;;;;;;;91.37;42.80;;;;;;;;;;4991641;28;20317;-61
2022/12/16 02:08:44;;;;;;;92.90;46.80;;;;;;;;;;4991353;28;20285;-61
2022/12/16 02:11:25;;;;;;;96.77;47.50;;;;;;;;;;4991616;28;20309;-61
2022/12/16 02:13:51;;;;;;;87.17;44.97;;;;;;;;;;4991341;28;20286;-61
2022/12/16 02:16:30;;;;;;;78.70;43.70;;;;;;;;;;4991511;28;20285;-61
2022/12/16 02:18:56;;;;;;;80.07;45.43;;;;;;;;;;4990411;28;20296;-61
2022/12/16 02:21:26;;;;;;;78.73;43.23;;;;;;;;;;4991212;28;20281;-61
2022/12/16 02:23:52;;;;;;;86.27;44.77;;;;;;;;;;4991125;28;20336;-61
2022/12/16 02:26:51;;;;;;;83.07;44.97;;;;;;;;;;4991272;28;20877;-60
2022/12/16 02:29:26;;;;;;;85.27;45.67;;;;;;;;;;4957729;28;20286;-61
2022/12/16 02:32:00;;;;;;;91.80;46.23;;;;;;;;;;4990933;28;20282;-61
2022/12/16 02:34:29;;;;;;;89.43;46.22;;;;;;;;;;4992187;28;20294;-61
2022/12/16 02:36:55;;;;;;;86.13;45.47;;;;;;;;;;4990747;28;20054;-61
2022/12/16 02:39:27;;;;;;;88.87;46.10;;;;;;;;;;4990703;28;20290;-61
2022/12/16 02:41:57;;;;;;;94.60;44.73;;;;;;;;;;4990350;28;20289;-61
2022/12/16 02:44:29;;;;;;;88.50;46.17;;;;;;;;;;4996992;28;20285;-61
2022/12/16 02:46:55;;;;;;;85.87;44.27;;;;;;;;;;5010172;28;20343;-61
2022/12/16 02:49:21;;;;;;;87.17;45.10;;;;;;;;;;4997174;28;20796;-61
2022/12/16 02:51:47;;;;;;;90.63;47.17;;;;;;;;;;4990555;28;20308;-61
2022/12/16 02:54:14;;;;;;;93.23;46.53;;;;;;;;;;4999256;28;20296;-61
2022/12/16 02:56:51;;;;;;;91.37;48.27;;;;;;;;;;5006609;28;20304;-61
2022/12/16 02:59:30;;;;;;;87.73;45.17;;;;;;;;;;5010359;28;20300;-61
2022/12/16 03:01:59;;;;;;;90.87;47.37;;;;;;;;;;5007433;28;20308;-61
2022/12/16 03:04:34;;;;;;;93.17;46.77;;;;;;;;;;4995078;28;20310;-61
2022/12/16 03:07:01;;;;;;;86.23;47.20;;;;;;;;;;4990621;28;20309;-61
2022/12/16 03:09:29;;;;;;;86.17;45.47;;;;;;;;;;4990547;28;20290;-61
2022/12/16 03:11:56;;;;;;;79.93;45.40;;;;;;;;;;4988640;28;20289;-61
2022/12/16 03:14:24;;;;;;;89.57;45.53;;;;;;;;;;5000934;28;20336;-61
2022/12/16 03:16:51;;;;;;;87.37;47.87;;;;;;;;;;5010106;28;20289;-61
2022/12/16 03:19:19;;;;;;;99.87;47.23;;;;;;;;;;4994854;28;20298;-61
2022/12/16 03:21:52;;;;;;;90.10;47.27;;;;;;;;;;4990126;28;20297;-61
2022/12/16 03:24:18;;;;;;;95.43;46.10;;;;;;;;;;4999636;28;20305;-61
2022/12/16 03:26:48;;;;;;;90.27;47.43;;;;;;;;;;5009011;28;20312;-61
2022/12/16 03:29:19;;;;;;;101.00;49.50;;;;;;;;;;5009045;28;20289;-61
2022/12/16 03:31:54;;;;;;;92.87;47.93;;;;;;;;;;5009588;28;20296;-61
2022/12/16 03:34:40;;;;;;;94.37;49.03;;;;;;;;;;5002790;28;20301;-61
2022/12/16 03:37:08;;;;;;;97.10;50.13;;;;;;;;;;5009224;28;20321;-61
2022/12/16 03:39:36;;;;;;;95.03;46.73;;;;;;;;;;4991664;28;20284;-61
2022/12/16 03:42:02;;;;;;;99.80;49.33;;;;;;;;;;5008279;28;20077;-61
2022/12/16 03:44:29;;;;;;;88.30;47.40;;;;;;;;;;5007910;28;20304;-60
2022/12/16 03:46:55;;;;;;;90.77;46.93;;;;;;;;;;5009582;28;20392;-61
2022/12/16 03:49:22;;;;;;;89.63;46.97;;;;;;;;;;4990559;28;20289;-61
2022/12/16 03:51:48;;;;;;;88.37;48.10;;;;;;;;;;4989878;28;20726;-61
2022/12/16 03:54:14;;;;;;;93.97;46.30;;;;;;;;;;4998192;28;20383;-61
2022/12/16 03:56:41;;;;;;;86.50;44.63;;;;;;;;;;4988455;28;20364;-61
2022/12/16 03:59:07;;;;;;;85.93;44.83;;;;;;;;;;4989297;28;20296;-61
2022/12/16 04:01:33;;;;;;;85.73;47.03;;;;;;;;;;4989489;28;20775;-61
2022/12/16 04:03:59;;;;;;;82.50;45.83;;;;;;;;;;4989091;28;20409;-61
2022/12/16 04:06:25;;;;;;;91.30;46.23;;;;;;;;;;4989482;28;20325;-61
2022/12/16 04:08:51;;;;;;;111.17;46.57;;;;;;;;;;4989100;28;20289;-61
2022/12/16 04:25:15;;;;;;;78.30;43.60;;;;;;;;;;5005238;28;20317;-61
2022/12/16 04:27:45;;;;;;;78.57;43.27;;;;;;;;;;5008904;28;20285;-61
2022/12/16 04:30:18;;;;;;;71.43;41.50;;;;;;;;;;5002545;28;20290;-61
